sensor_id;sensor_type;location;lat;lon;timestamp;temperature;humidity
11609;DHT22;5860;52.018;8.536;2023-05-07T00:02:08;12.60;99.90
11609;DHT22;5860;52.018;8.536;2023-05-07T00:04:35;12.60;99.90
11609;DHT22;5860;52.018;8.536;2023-05-07T00:07:04;12.60;99.90
11609;DHT22;5860;52.018;8.536;2023-05-07T00:09:32;12.60;99.90
11609;DHT22;5860;52.018;8.536;2023-05-07T00:11:59;12.60;99.90
11609;DHT22;5860;52.018;8.536;2023-05-07T00:14:26;12.60;99.90
11609;DHT22;5860;52.018;8.536;2023-05-07T00:16:53;12.60;99.90
11609;DHT22;5860;52.018;8.536;2023-05-07T00:19:19;12.50;99.90
11609;DHT22;5860;52.018;8.536;2023-05-07T00:21:47;12.50;99.90
11609;DHT22;5860;52.018;8.536;2023-05-07T00:24:14;12.50;99.90
11609;DHT22;5860;52.018;8.536;2023-05-07T00:26:41;12.40;99.90
11609;DHT22;5860;52.018;8.536;2023-05-07T00:29:07;12.40;99.90
11609;DHT22;5860;52.018;8.536;2023-05-07T00:31:37;12.40;99.90
11609;DHT22;5860;52.018;8.536;2023-05-07T00:34:04;12.40;99.90
11609;DHT22;5860;52.018;8.536;2023-05-07T00:36:31;12.40;99.90
11609;DHT22;5860;52.018;8.536;2023-05-07T00:39:02;12.30;99.90
11609;DHT22;5860;52.018;8.536;2023-05-07T00:41:30;12.30;99.90
11609;DHT22;5860;52.018;8.536;2023-05-07T00:43:57;12.30;99.90
11609;DHT22;5860;52.018;8.536;2023-05-07T00:46:24;12.20;99.90
11609;DHT22;5860;52.018;8.536;2023-05-07T00:48:53;12.20;99.90
11609;DHT22;5860;52.018;8.536;2023-05-07T00:51:21;12.10;99.90
11609;DHT22;5860;52.018;8.536;2023-05-07T00:53:48;12.10;99.90
11609;DHT22;5860;52.018;8.536;2023-05-07T00:56:15;12.10;99.90
11609;DHT22;5860;52.018;8.536;2023-05-07T00:58:43;12.00;99.90
11609;DHT22;5860;52.018;8.536;2023-05-07T01:01:10;12.00;99.90
11609;DHT22;5860;52.018;8.536;2023-05-07T01:03:42;12.00;99.90
11609;DHT22;5860;52.018;8.536;2023-05-07T01:06:10;12.00;99.90
11609;DHT22;5860;52.018;8.536;2023-05-07T01:08:41;12.00;99.90
11609;DHT22;5860;52.018;8.536;2023-05-07T01:11:12;12.00;99.90
11609;DHT22;5860;52.018;8.536;2023-05-07T01:13:39;12.00;99.90
11609;DHT22;5860;52.018;8.536;2023-05-07T01:16:08;12.00;99.90
11609;DHT22;5860;52.018;8.536;2023-05-07T01:18:36;11.90;99.90
11609;DHT22;5860;52.018;8.536;2023-05-07T01:21:04;12.00;99.90
11609;DHT22;5860;52.018;8.536;2023-05-07T01:23:33;12.00;99.90
11609;DHT22;5860;52.018;8.536;2023-05-07T01:26:00;11.90;99.90
11609;DHT22;5860;52.018;8.536;2023-05-07T01:28:28;11.90;99.90
11609;DHT22;5860;52.018;8.536;2023-05-07T01:30:58;11.90;99.90
11609;DHT22;5860;52.018;8.536;2023-05-07T01:33:31;11.90;99.90
11609;DHT22;5860;52.018;8.536;2023-05-07T01:36:03;11.90;99.90
11609;DHT22;5860;52.018;8.536;2023-05-07T01:38:36;11.80;99.90
11609;DHT22;5860;52.018;8.536;2023-05-07T01:41:04;11.80;99.90
11609;DHT22;5860;52.018;8.536;2023-05-07T01:43:31;11.80;99.90
11609;DHT22;5860;52.018;8.536;2023-05-07T01:46:01;11.80;99.90
11609;DHT22;5860;52.018;8.536;2023-05-07T01:48:29;11.80;99.90
11609;DHT22;5860;52.018;8.536;2023-05-07T01:50:57;11.80;99.90
11609;DHT22;5860;52.018;8.536;2023-05-07T01:53:27;11.80;99.90
11609;DHT22;5860;52.018;8.536;2023-05-07T01:55:54;11.70;99.90
11609;DHT22;5860;52.018;8.536;2023-05-07T01:58:21;11.70;99.90
11609;DHT22;5860;52.018;8.536;2023-05-07T02:00:48;11.70;99.90
11609;DHT22;5860;52.018;8.536;2023-05-07T02:03:15;11.70;99.90
11609;DHT22;5860;52.018;8.536;2023-05-07T02:05:42;11.70;99.90
11609;DHT22;5860;52.018;8.536;2023-05-07T02:08:09;11.70;99.90
11609;DHT22;5860;52.018;8.536;2023-05-07T02:10:36;11.70;99.90
11609;DHT22;5860;52.018;8.536;2023-05-07T02:13:03;11.60;99.90
11609;DHT22;5860;52.018;8.536;2023-05-07T02:15:30;11.60;99.90
11609;DHT22;5860;52.018;8.536;2023-05-07T02:18:01;11.70;99.90
11609;DHT22;5860;52.018;8.536;2023-05-07T02:20:29;11.70;99.90
11609;DHT22;5860;52.018;8.536;2023-05-07T02:22:56;11.70;99.90
11609;DHT22;5860;52.018;8.536;2023-05-07T02:25:23;11.60;99.90
11609;DHT22;5860;52.018;8.536;2023-05-07T02:27:50;11.60;99.90
11609;DHT22;5860;52.018;8.536;2023-05-07T02:30:18;11.60;99.90
11609;DHT22;5860;52.018;8.536;2023-05-07T02:32:45;11.60;99.90
11609;DHT22;5860;52.018;8.536;2023-05-07T02:35:12;11.60;99.90
11609;DHT22;5860;52.018;8.536;2023-05-07T02:37:38;11.60;99.90
11609;DHT22;5860;52.018;8.536;2023-05-07T02:40:06;11.50;99.90
11609;DHT22;5860;52.018;8.536;2023-05-07T02:42:33;11.50;99.90
11609;DHT22;5860;52.018;8.536;2023-05-07T02:45:00;11.50;99.90
11609;DHT22;5860;52.018;8.536;2023-05-07T02:47:28;11.50;99.90
11609;DHT22;5860;52.018;8.536;2023-05-07T02:49:55;11.50;99.90
11609;DHT22;5860;52.018;8.536;2023-05-07T02:52:23;11.50;99.90
11609;DHT22;5860;52.018;8.536;2023-05-07T02:54:51;11.40;99.90
11609;DHT22;5860;52.018;8.536;2023-05-07T02:57:17;11.50;99.90
11609;DHT22;5860;52.018;8.536;2023-05-07T02:59:44;11.40;99.90
11609;DHT22;5860;52.018;8.536;2023-05-07T03:02:11;11.40;99.90
11609;DHT22;5860;52.018;8.536;2023-05-07T03:04:39;11.40;99.90
11609;DHT22;5860;52.018;8.536;2023-05-07T03:07:06;11.40;99.90
11609;DHT22;5860;52.018;8.536;2023-05-07T03:09:33;11.40;99.90
11609;DHT22;5860;52.018;8.536;2023-05-07T03:12:00;11.50;99.90
11609;DHT22;5860;52.018;8.536;2023-05-07T03:14:28;11.40;99.90
11609;DHT22;5860;52.018;8.536;2023-05-07T03:16:55;11.40;99.90
11609;DHT22;5860;52.018;8.536;2023-05-07T03:19:22;11.40;99.90
11609;DHT22;5860;52.018;8.536;2023-05-07T03:21:49;11.40;99.90
11609;DHT22;5860;52.018;8.536;2023-05-07T03:24:16;11.30;99.90
11609;DHT22;5860;52.018;8.536;2023-05-07T03:26:43;11.30;99.90
11609;DHT22;5860;52.018;8.536;2023-05-07T03:29:10;11.30;99.90
11609;DHT22;5860;52.018;8.536;2023-05-07T03:31:37;11.30;99.90
11609;DHT22;5860;52.018;8.536;2023-05-07T03:34:04;11.30;99.90
11609;DHT22;5860;52.018;8.536;2023-05-07T03:36:31;11.20;99.90
11609;DHT22;5860;52.018;8.536;2023-05-07T03:38:57;11.30;99.90
11609;DHT22;5860;52.018;8.536;2023-05-07T03:41:24;11.20;99.90
11609;DHT22;5860;52.018;8.536;2023-05-07T03:43:52;11.20;99.90
11609;DHT22;5860;52.018;8.536;2023-05-07T03:46:19;11.20;99.90
11609;DHT22;5860;52.018;8.536;2023-05-07T03:48:46;11.20;99.90
11609;DHT22;5860;52.018;8.536;2023-05-07T03:51:13;11.20;99.90
11609;DHT22;5860;52.018;8.536;2023-05-07T03:53:41;11.20;99.90
11609;DHT22;5860;52.018;8.536;2023-05-07T03:56:08;11.20;99.90
11609;DHT22;5860;52.018;8.536;2023-05-07T03:58:35;11.20;99.90
11609;DHT22;5860;52.018;8.536;2023-05-07T04:01:01;11.20;99.90
11609;DHT22;5860;52.018;8.536;2023-05-07T04:03:29;11.20;99.90
11609;DHT22;5860;52.018;8.536;2023-05-07T04:05:56;11.20;99.90
11609;DHT22;5860;52.018;8.536;2023-05-07T04:08:23;11.20;99.90
11609;DHT22;5860;52.018;8.536;2023-05-07T04:10:58;11.20;99.90
11609;DHT22;5860;52.018;8.536;2023-05-07T04:13:27;11.20;99.90
11609;DHT22;5860;52.018;8.536;2023-05-07T04:15:55;11.20;99.90
11609;DHT22;5860;52.018;8.536;2023-05-07T04:18:22;11.20;99.90
11609;DHT22;5860;52.018;8.536;2023-05-07T04:20:49;11.20;99.90
11609;DHT22;5860;52.018;8.536;2023-05-07T04:23:17;11.20;99.90
11609;DHT22;5860;52.018;8.536;2023-05-07T04:25:44;11.10;99.90
11609;DHT22;5860;52.018;8.536;2023-05-07T04:28:12;11.10;99.90
11609;DHT22;5860;52.018;8.536;2023-05-07T04:30:39;11.20;99.90
11609;DHT22;5860;52.018;8.536;2023-05-07T04:33:06;11.20;99.90
11609;DHT22;5860;52.018;8.536;2023-05-07T04:35:34;11.10;99.90
11609;DHT22;5860;52.018;8.536;2023-05-07T04:38:01;11.10;99.90
11609;DHT22;5860;52.018;8.536;2023-05-07T04:40:28;11.10;99.90
11609;DHT22;5860;52.018;8.536;2023-05-07T04:42:55;11.20;99.90
11609;DHT22;5860;52.018;8.536;2023-05-07T04:45:22;11.20;99.90
11609;DHT22;5860;52.018;8.536;2023-05-07T04:47:48;11.20;99.90
11609;DHT22;5860;52.018;8.536;2023-05-07T04:50:16;11.20;99.90
11609;DHT22;5860;52.018;8.536;2023-05-07T04:52:44;11.20;99.90
11609;DHT22;5860;52.018;8.536;2023-05-07T04:55:11;11.20;99.90
11609;DHT22;5860;52.018;8.536;2023-05-07T04:57:38;11.20;99.90
11609;DHT22;5860;52.018;8.536;2023-05-07T05:00:07;11.20;99.90
11609;DHT22;5860;52.018;8.536;2023-05-07T05:02:40;11.30;99.90
11609;DHT22;5860;52.018;8.536;2023-05-07T05:05:08;11.30;99.90
11609;DHT22;5860;52.018;8.536;2023-05-07T05:07:35;11.20;99.90
11609;DHT22;5860;52.018;8.536;2023-05-07T05:10:02;11.20;99.90
11609;DHT22;5860;52.018;8.536;2023-05-07T05:12:30;11.20;99.90
11609;DHT22;5860;52.018;8.536;2023-05-07T05:14:57;11.20;99.90
11609;DHT22;5860;52.018;8.536;2023-05-07T05:17:24;11.30;99.90
11609;DHT22;5860;52.018;8.536;2023-05-07T05:19:50;11.30;99.90
11609;DHT22;5860;52.018;8.536;2023-05-07T05:22:18;11.40;99.90
11609;DHT22;5860;52.018;8.536;2023-05-07T05:24:45;11.50;99.90
11609;DHT22;5860;52.018;8.536;2023-05-07T05:27:11;11.50;99.90
11609;DHT22;5860;52.018;8.536;2023-05-07T05:29:38;11.60;99.90
11609;DHT22;5860;52.018;8.536;2023-05-07T05:32:05;11.50;99.90
11609;DHT22;5860;52.018;8.536;2023-05-07T05:34:32;11.60;99.90
11609;DHT22;5860;52.018;8.536;2023-05-07T05:37:00;11.70;99.90
11609;DHT22;5860;52.018;8.536;2023-05-07T05:39:26;11.70;99.90
11609;DHT22;5860;52.018;8.536;2023-05-07T05:41:53;11.80;99.90
11609;DHT22;5860;52.018;8.536;2023-05-07T05:44:20;11.70;99.90
11609;DHT22;5860;52.018;8.536;2023-05-07T05:46:47;11.90;99.90
11609;DHT22;5860;52.018;8.536;2023-05-07T05:49:16;12.00;99.90
11609;DHT22;5860;52.018;8.536;2023-05-07T05:51:43;12.10;99.90
11609;DHT22;5860;52.018;8.536;2023-05-07T05:54:10;12.00;99.90
11609;DHT22;5860;52.018;8.536;2023-05-07T05:56:37;12.20;99.90
11609;DHT22;5860;52.018;8.536;2023-05-07T05:59:04;12.30;99.90
11609;DHT22;5860;52.018;8.536;2023-05-07T06:01:31;12.50;99.90
11609;DHT22;5860;52.018;8.536;2023-05-07T06:03:58;12.60;99.90
11609;DHT22;5860;52.018;8.536;2023-05-07T06:06:25;12.60;99.90
11609;DHT22;5860;52.018;8.536;2023-05-07T06:08:52;12.70;99.90
11609;DHT22;5860;52.018;8.536;2023-05-07T06:11:19;12.70;99.90
11609;DHT22;5860;52.018;8.536;2023-05-07T06:13:47;12.90;99.90
11609;DHT22;5860;52.018;8.536;2023-05-07T06:16:14;12.80;99.90
11609;DHT22;5860;52.018;8.536;2023-05-07T06:18:42;12.70;99.90
11609;DHT22;5860;52.018;8.536;2023-05-07T06:21:09;12.70;99.90
11609;DHT22;5860;52.018;8.536;2023-05-07T06:23:36;12.70;99.90
11609;DHT22;5860;52.018;8.536;2023-05-07T06:26:03;12.80;99.90
11609;DHT22;5860;52.018;8.536;2023-05-07T06:28:31;12.80;99.90
11609;DHT22;5860;52.018;8.536;2023-05-07T06:31:15;12.80;99.90
11609;DHT22;5860;52.018;8.536;2023-05-07T06:33:44;12.70;99.90
11609;DHT22;5860;52.018;8.536;2023-05-07T06:36:11;12.80;99.90
11609;DHT22;5860;52.018;8.536;2023-05-07T06:38:38;12.90;99.90
11609;DHT22;5860;52.018;8.536;2023-05-07T06:41:06;13.00;99.90
11609;DHT22;5860;52.018;8.536;2023-05-07T06:43:33;13.10;99.90
11609;DHT22;5860;52.018;8.536;2023-05-07T06:46:00;13.00;99.90
11609;DHT22;5860;52.018;8.536;2023-05-07T06:48:27;13.00;99.90
11609;DHT22;5860;52.018;8.536;2023-05-07T06:50:54;13.50;99.90
11609;DHT22;5860;52.018;8.536;2023-05-07T06:53:22;13.60;99.90
11609;DHT22;5860;52.018;8.536;2023-05-07T06:55:49;13.60;99.90
11609;DHT22;5860;52.018;8.536;2023-05-07T06:58:16;13.70;99.90
11609;DHT22;5860;52.018;8.536;2023-05-07T07:00:42;13.60;99.90
11609;DHT22;5860;52.018;8.536;2023-05-07T07:03:09;13.60;99.90
11609;DHT22;5860;52.018;8.536;2023-05-07T07:05:40;14.20;99.90
11609;DHT22;5860;52.018;8.536;2023-05-07T07:08:07;13.70;99.90
11609;DHT22;5860;52.018;8.536;2023-05-07T07:10:34;14.60;99.90
11609;DHT22;5860;52.018;8.536;2023-05-07T07:13:01;15.00;99.90
11609;DHT22;5860;52.018;8.536;2023-05-07T07:15:28;15.20;99.90
11609;DHT22;5860;52.018;8.536;2023-05-07T07:17:55;14.90;99.90
11609;DHT22;5860;52.018;8.536;2023-05-07T07:20:22;15.90;99.90
11609;DHT22;5860;52.018;8.536;2023-05-07T07:22:49;15.20;99.90
11609;DHT22;5860;52.018;8.536;2023-05-07T07:25:16;15.30;99.90
11609;DHT22;5860;52.018;8.536;2023-05-07T07:27:43;15.00;99.90
11609;DHT22;5860;52.018;8.536;2023-05-07T07:30:11;15.00;99.90
11609;DHT22;5860;52.018;8.536;2023-05-07T07:32:38;14.20;99.90
11609;DHT22;5860;52.018;8.536;2023-05-07T07:35:06;14.30;99.90
11609;DHT22;5860;52.018;8.536;2023-05-07T07:37:33;14.60;99.90
11609;DHT22;5860;52.018;8.536;2023-05-07T07:39:59;14.50;99.90
11609;DHT22;5860;52.018;8.536;2023-05-07T07:42:27;14.40;99.90
11609;DHT22;5860;52.018;8.536;2023-05-07T07:44:55;14.80;99.90
11609;DHT22;5860;52.018;8.536;2023-05-07T07:47:24;14.30;99.90
11609;DHT22;5860;52.018;8.536;2023-05-07T07:49:51;14.30;99.90
11609;DHT22;5860;52.018;8.536;2023-05-07T07:52:18;14.30;99.90
11609;DHT22;5860;52.018;8.536;2023-05-07T07:54:46;14.40;99.90
11609;DHT22;5860;52.018;8.536;2023-05-07T07:57:12;14.70;99.90
11609;DHT22;5860;52.018;8.536;2023-05-07T07:59:40;14.60;99.90
11609;DHT22;5860;52.018;8.536;2023-05-07T08:02:09;14.80;99.90
11609;DHT22;5860;52.018;8.536;2023-05-07T08:04:36;15.00;99.90
11609;DHT22;5860;52.018;8.536;2023-05-07T08:07:04;14.90;99.90
11609;DHT22;5860;52.018;8.536;2023-05-07T08:09:31;14.60;99.90
11609;DHT22;5860;52.018;8.536;2023-05-07T08:11:58;14.80;99.90
11609;DHT22;5860;52.018;8.536;2023-05-07T08:14:25;14.90;99.90
11609;DHT22;5860;52.018;8.536;2023-05-07T08:16:52;14.40;99.90
11609;DHT22;5860;52.018;8.536;2023-05-07T08:19:19;14.60;99.90
11609;DHT22;5860;52.018;8.536;2023-05-07T08:21:46;14.60;99.90
11609;DHT22;5860;52.018;8.536;2023-05-07T08:24:17;15.00;99.90
11609;DHT22;5860;52.018;8.536;2023-05-07T08:26:45;15.40;99.90
11609;DHT22;5860;52.018;8.536;2023-05-07T08:29:13;15.20;99.90
11609;DHT22;5860;52.018;8.536;2023-05-07T08:31:40;15.30;99.90
11609;DHT22;5860;52.018;8.536;2023-05-07T08:34:07;15.10;99.90
11609;DHT22;5860;52.018;8.536;2023-05-07T08:36:35;15.00;99.90
11609;DHT22;5860;52.018;8.536;2023-05-07T08:39:02;14.80;99.90
11609;DHT22;5860;52.018;8.536;2023-05-07T08:41:30;15.10;99.90
11609;DHT22;5860;52.018;8.536;2023-05-07T08:43:58;14.60;99.90
11609;DHT22;5860;52.018;8.536;2023-05-07T08:46:31;15.10;99.90
11609;DHT22;5860;52.018;8.536;2023-05-07T08:48:59;15.50;99.90
11609;DHT22;5860;52.018;8.536;2023-05-07T08:51:26;15.50;99.90
11609;DHT22;5860;52.018;8.536;2023-05-07T08:53:54;15.30;99.90
11609;DHT22;5860;52.018;8.536;2023-05-07T08:56:21;15.40;99.90
11609;DHT22;5860;52.018;8.536;2023-05-07T08:58:48;15.20;99.90
11609;DHT22;5860;52.018;8.536;2023-05-07T09:01:16;15.30;99.90
11609;DHT22;5860;52.018;8.536;2023-05-07T09:03:45;15.40;99.90
11609;DHT22;5860;52.018;8.536;2023-05-07T09:06:13;15.70;99.90
11609;DHT22;5860;52.018;8.536;2023-05-07T09:08:40;15.80;99.90
11609;DHT22;5860;52.018;8.536;2023-05-07T09:11:07;15.10;99.90
11609;DHT22;5860;52.018;8.536;2023-05-07T09:13:34;15.40;99.90
11609;DHT22;5860;52.018;8.536;2023-05-07T09:16:10;15.60;99.90
11609;DHT22;5860;52.018;8.536;2023-05-07T09:18:42;15.80;99.90
11609;DHT22;5860;52.018;8.536;2023-05-07T09:21:17;15.40;99.90
11609;DHT22;5860;52.018;8.536;2023-05-07T09:23:44;15.60;99.90
11609;DHT22;5860;52.018;8.536;2023-05-07T09:26:11;15.60;99.90
11609;DHT22;5860;52.018;8.536;2023-05-07T09:28:41;15.70;99.90
11609;DHT22;5860;52.018;8.536;2023-05-07T09:31:10;15.70;99.90
11609;DHT22;5860;52.018;8.536;2023-05-07T09:33:38;16.20;99.90
11609;DHT22;5860;52.018;8.536;2023-05-07T09:36:06;16.10;99.90
11609;DHT22;5860;52.018;8.536;2023-05-07T09:38:34;16.40;99.90
11609;DHT22;5860;52.018;8.536;2023-05-07T09:41:12;16.40;99.90
11609;DHT22;5860;52.018;8.536;2023-05-07T09:43:40;16.00;99.90
11609;DHT22;5860;52.018;8.536;2023-05-07T09:46:13;16.20;99.90
11609;DHT22;5860;52.018;8.536;2023-05-07T09:48:42;16.00;99.90
11609;DHT22;5860;52.018;8.536;2023-05-07T09:51:22;15.70;99.90
11609;DHT22;5860;52.018;8.536;2023-05-07T09:53:57;16.20;99.90
11609;DHT22;5860;52.018;8.536;2023-05-07T09:56:27;16.10;99.90
11609;DHT22;5860;52.018;8.536;2023-05-07T09:58:59;16.40;99.90
11609;DHT22;5860;52.018;8.536;2023-05-07T10:01:27;16.40;99.90
11609;DHT22;5860;52.018;8.536;2023-05-07T10:03:56;16.30;99.90
11609;DHT22;5860;52.018;8.536;2023-05-07T10:06:25;16.40;99.90
11609;DHT22;5860;52.018;8.536;2023-05-07T10:08:53;16.50;99.90
11609;DHT22;5860;52.018;8.536;2023-05-07T10:11:22;16.50;99.90
11609;DHT22;5860;52.018;8.536;2023-05-07T10:13:49;16.40;99.90
11609;DHT22;5860;52.018;8.536;2023-05-07T10:16:17;16.80;99.90
11609;DHT22;5860;52.018;8.536;2023-05-07T10:18:45;16.70;99.90
11609;DHT22;5860;52.018;8.536;2023-05-07T10:21:23;17.00;99.90
11609;DHT22;5860;52.018;8.536;2023-05-07T10:24:04;17.30;99.90
11609;DHT22;5860;52.018;8.536;2023-05-07T10:26:37;17.20;99.90
11609;DHT22;5860;52.018;8.536;2023-05-07T10:29:11;16.80;99.90
11609;DHT22;5860;52.018;8.536;2023-05-07T10:34:24;17.40;99.90
11609;DHT22;5860;52.018;8.536;2023-05-07T10:36:53;17.40;99.90
11609;DHT22;5860;52.018;8.536;2023-05-07T10:39:21;16.80;99.90
11609;DHT22;5860;52.018;8.536;2023-05-07T10:41:50;16.70;99.90
11609;DHT22;5860;52.018;8.536;2023-05-07T10:44:28;17.20;99.90
11609;DHT22;5860;52.018;8.536;2023-05-07T10:47:09;17.70;99.90
11609;DHT22;5860;52.018;8.536;2023-05-07T10:52:18;17.20;99.90
11609;DHT22;5860;52.018;8.536;2023-05-07T10:54:46;16.70;99.90
11609;DHT22;5860;52.018;8.536;2023-05-07T10:57:42;16.80;99.90
11609;DHT22;5860;52.018;8.536;2023-05-07T11:03:05;17.00;99.90
11609;DHT22;5860;52.018;8.536;2023-05-07T11:05:34;16.80;99.90
11609;DHT22;5860;52.018;8.536;2023-05-07T11:08:04;17.00;99.90
11609;DHT22;5860;52.018;8.536;2023-05-07T11:10:55;16.90;99.90
11609;DHT22;5860;52.018;8.536;2023-05-07T11:13:46;17.30;99.90
11609;DHT22;5860;52.018;8.536;2023-05-07T11:18:49;17.10;99.90
11609;DHT22;5860;52.018;8.536;2023-05-07T11:24:00;17.80;99.90
11609;DHT22;5860;52.018;8.536;2023-05-07T11:26:41;17.30;99.90
11609;DHT22;5860;52.018;8.536;2023-05-07T11:29:21;17.40;99.90
11609;DHT22;5860;52.018;8.536;2023-05-07T11:31:54;17.40;99.90
11609;DHT22;5860;52.018;8.536;2023-05-07T11:34:23;17.60;99.90
11609;DHT22;5860;52.018;8.536;2023-05-07T11:36:50;17.60;99.90
11609;DHT22;5860;52.018;8.536;2023-05-07T11:39:44;17.50;99.90
11609;DHT22;5860;52.018;8.536;2023-05-07T11:42:34;17.80;99.90
11609;DHT22;5860;52.018;8.536;2023-05-07T11:45:02;17.30;99.90
11609;DHT22;5860;52.018;8.536;2023-05-07T11:47:32;17.50;99.90
11609;DHT22;5860;52.018;8.536;2023-05-07T11:50:08;16.90;99.90
11609;DHT22;5860;52.018;8.536;2023-05-07T11:52:37;17.40;99.90
11609;DHT22;5860;52.018;8.536;2023-05-07T11:55:07;17.30;99.90
11609;DHT22;5860;52.018;8.536;2023-05-07T11:57:35;17.40;99.90
11609;DHT22;5860;52.018;8.536;2023-05-07T12:00:02;17.50;99.90
11609;DHT22;5860;52.018;8.536;2023-05-07T12:02:31;17.60;99.90
11609;DHT22;5860;52.018;8.536;2023-05-07T12:05:00;17.50;99.90
11609;DHT22;5860;52.018;8.536;2023-05-07T12:07:27;17.50;99.90
11609;DHT22;5860;52.018;8.536;2023-05-07T12:09:54;17.20;99.90
11609;DHT22;5860;52.018;8.536;2023-05-07T12:12:21;17.30;99.90
11609;DHT22;5860;52.018;8.536;2023-05-07T12:14:48;17.10;99.90
11609;DHT22;5860;52.018;8.536;2023-05-07T12:17:15;16.90;99.90
11609;DHT22;5860;52.018;8.536;2023-05-07T12:19:43;17.50;99.90
11609;DHT22;5860;52.018;8.536;2023-05-07T12:22:12;17.20;99.90
11609;DHT22;5860;52.018;8.536;2023-05-07T12:24:49;17.30;99.90
11609;DHT22;5860;52.018;8.536;2023-05-07T12:27:17;17.60;99.90
11609;DHT22;5860;52.018;8.536;2023-05-07T12:29:48;17.50;99.90
11609;DHT22;5860;52.018;8.536;2023-05-07T12:32:20;17.40;99.90
11609;DHT22;5860;52.018;8.536;2023-05-07T12:34:51;17.40;99.90
11609;DHT22;5860;52.018;8.536;2023-05-07T12:37:24;17.60;99.90
11609;DHT22;5860;52.018;8.536;2023-05-07T12:40:08;17.50;99.90
11609;DHT22;5860;52.018;8.536;2023-05-07T12:42:37;17.90;99.90
11609;DHT22;5860;52.018;8.536;2023-05-07T12:45:11;18.20;99.90
11609;DHT22;5860;52.018;8.536;2023-05-07T12:47:39;17.70;99.90
11609;DHT22;5860;52.018;8.536;2023-05-07T12:50:09;18.10;99.90
11609;DHT22;5860;52.018;8.536;2023-05-07T12:52:37;18.00;99.90
11609;DHT22;5860;52.018;8.536;2023-05-07T12:55:05;17.60;99.90
11609;DHT22;5860;52.018;8.536;2023-05-07T12:57:41;18.10;99.90
11609;DHT22;5860;52.018;8.536;2023-05-07T13:00:08;17.50;99.90
11609;DHT22;5860;52.018;8.536;2023-05-07T13:02:40;18.10;99.90
11609;DHT22;5860;52.018;8.536;2023-05-07T13:05:08;18.00;99.90
11609;DHT22;5860;52.018;8.536;2023-05-07T13:07:36;17.70;99.90
11609;DHT22;5860;52.018;8.536;2023-05-07T13:10:04;18.10;99.90
11609;DHT22;5860;52.018;8.536;2023-05-07T13:12:32;18.10;99.90
11609;DHT22;5860;52.018;8.536;2023-05-07T13:14:59;18.10;99.90
11609;DHT22;5860;52.018;8.536;2023-05-07T13:17:26;18.30;99.90
11609;DHT22;5860;52.018;8.536;2023-05-07T13:19:53;17.70;99.90
11609;DHT22;5860;52.018;8.536;2023-05-07T13:22:20;17.60;99.90
11609;DHT22;5860;52.018;8.536;2023-05-07T13:24:47;17.80;99.90
11609;DHT22;5860;52.018;8.536;2023-05-07T13:27:14;17.60;99.90
11609;DHT22;5860;52.018;8.536;2023-05-07T13:29:41;17.80;99.90
11609;DHT22;5860;52.018;8.536;2023-05-07T13:32:09;17.90;99.90
11609;DHT22;5860;52.018;8.536;2023-05-07T13:34:36;17.70;99.90
11609;DHT22;5860;52.018;8.536;2023-05-07T13:37:03;17.50;99.90
11609;DHT22;5860;52.018;8.536;2023-05-07T13:39:30;17.60;99.90
11609;DHT22;5860;52.018;8.536;2023-05-07T13:41:58;17.30;99.90
11609;DHT22;5860;52.018;8.536;2023-05-07T13:44:26;17.30;99.90
11609;DHT22;5860;52.018;8.536;2023-05-07T13:46:53;17.60;99.90
11609;DHT22;5860;52.018;8.536;2023-05-07T13:49:20;17.50;99.90
11609;DHT22;5860;52.018;8.536;2023-05-07T13:51:47;17.10;99.90
11609;DHT22;5860;52.018;8.536;2023-05-07T13:54:14;17.00;99.90
11609;DHT22;5860;52.018;8.536;2023-05-07T13:56:41;16.80;99.90
11609;DHT22;5860;52.018;8.536;2023-05-07T13:59:08;16.90;99.90
11609;DHT22;5860;52.018;8.536;2023-05-07T14:01:35;16.90;99.90
11609;DHT22;5860;52.018;8.536;2023-05-07T14:04:02;16.90;99.90
11609;DHT22;5860;52.018;8.536;2023-05-07T14:06:29;17.20;99.90
11609;DHT22;5860;52.018;8.536;2023-05-07T14:08:56;17.40;99.90
11609;DHT22;5860;52.018;8.536;2023-05-07T14:11:24;17.00;99.90
11609;DHT22;5860;52.018;8.536;2023-05-07T14:13:51;16.80;99.90
11609;DHT22;5860;52.018;8.536;2023-05-07T14:16:18;17.30;99.90
11609;DHT22;5860;52.018;8.536;2023-05-07T14:18:45;16.80;99.90
11609;DHT22;5860;52.018;8.536;2023-05-07T14:21:12;17.20;99.90
11609;DHT22;5860;52.018;8.536;2023-05-07T14:23:39;17.10;99.90
11609;DHT22;5860;52.018;8.536;2023-05-07T14:26:06;17.20;99.90
11609;DHT22;5860;52.018;8.536;2023-05-07T14:28:33;17.30;99.90
11609;DHT22;5860;52.018;8.536;2023-05-07T14:31:00;17.10;99.90
11609;DHT22;5860;52.018;8.536;2023-05-07T14:33:27;16.90;99.90
11609;DHT22;5860;52.018;8.536;2023-05-07T14:35:54;16.70;99.90
11609;DHT22;5860;52.018;8.536;2023-05-07T14:38:22;16.90;99.90
11609;DHT22;5860;52.018;8.536;2023-05-07T14:40:49;17.20;99.90
11609;DHT22;5860;52.018;8.536;2023-05-07T14:43:15;17.30;99.90
11609;DHT22;5860;52.018;8.536;2023-05-07T14:45:43;17.10;99.90
11609;DHT22;5860;52.018;8.536;2023-05-07T14:48:09;17.00;99.90
11609;DHT22;5860;52.018;8.536;2023-05-07T14:50:42;17.00;99.90
11609;DHT22;5860;52.018;8.536;2023-05-07T14:53:09;16.90;99.90
11609;DHT22;5860;52.018;8.536;2023-05-07T14:55:36;16.70;99.90
11609;DHT22;5860;52.018;8.536;2023-05-07T14:58:03;16.90;99.90
11609;DHT22;5860;52.018;8.536;2023-05-07T15:00:30;17.40;99.90
11609;DHT22;5860;52.018;8.536;2023-05-07T15:03:05;16.90;99.90
11609;DHT22;5860;52.018;8.536;2023-05-07T15:05:34;16.90;99.90
11609;DHT22;5860;52.018;8.536;2023-05-07T15:08:01;17.10;99.90
11609;DHT22;5860;52.018;8.536;2023-05-07T15:10:28;17.10;99.90
11609;DHT22;5860;52.018;8.536;2023-05-07T15:12:55;17.10;99.90
11609;DHT22;5860;52.018;8.536;2023-05-07T15:15:22;17.20;99.90
11609;DHT22;5860;52.018;8.536;2023-05-07T15:17:49;17.50;99.90
11609;DHT22;5860;52.018;8.536;2023-05-07T15:20:16;17.50;99.90
11609;DHT22;5860;52.018;8.536;2023-05-07T15:22:44;17.30;99.90
11609;DHT22;5860;52.018;8.536;2023-05-07T15:25:11;17.20;99.90
11609;DHT22;5860;52.018;8.536;2023-05-07T15:27:38;17.20;99.90
11609;DHT22;5860;52.018;8.536;2023-05-07T15:30:06;17.30;99.90
11609;DHT22;5860;52.018;8.536;2023-05-07T15:32:33;17.10;99.90
11609;DHT22;5860;52.018;8.536;2023-05-07T15:35:00;17.00;99.90
11609;DHT22;5860;52.018;8.536;2023-05-07T15:37:27;17.20;99.90
11609;DHT22;5860;52.018;8.536;2023-05-07T15:39:54;17.20;99.90
11609;DHT22;5860;52.018;8.536;2023-05-07T15:42:21;17.30;99.90
11609;DHT22;5860;52.018;8.536;2023-05-07T15:44:48;17.40;99.90
11609;DHT22;5860;52.018;8.536;2023-05-07T15:47:15;17.10;99.90
11609;DHT22;5860;52.018;8.536;2023-05-07T15:49:49;17.10;99.90
11609;DHT22;5860;52.018;8.536;2023-05-07T15:52:21;17.00;99.90
11609;DHT22;5860;52.018;8.536;2023-05-07T15:54:49;17.10;99.90
11609;DHT22;5860;52.018;8.536;2023-05-07T15:57:16;17.10;99.90
11609;DHT22;5860;52.018;8.536;2023-05-07T15:59:43;17.10;99.90
11609;DHT22;5860;52.018;8.536;2023-05-07T16:02:10;16.80;99.90
11609;DHT22;5860;52.018;8.536;2023-05-07T16:04:37;16.70;99.90
11609;DHT22;5860;52.018;8.536;2023-05-07T16:07:04;16.80;99.90